sensor_id;sensor_type;location;lat;lon;timestamp;temperature;humidity
32524;DHT22;18965;52.242;20.886;2023-04-03T00:00:24;3.80;67.30
32524;DHT22;18965;52.242;20.886;2023-04-03T00:02:50;3.70;66.70
32524;DHT22;18965;52.242;20.886;2023-04-03T00:05:17;3.70;67.90
32524;DHT22;18965;52.242;20.886;2023-04-03T00:07:43;3.70;67.40
32524;DHT22;18965;52.242;20.886;2023-04-03T00:10:10;3.70;67.20
32524;DHT22;18965;52.242;20.886;2023-04-03T00:12:36;3.60;67.30
32524;DHT22;18965;52.242;20.886;2023-04-03T00:15:02;3.60;67.40
32524;DHT22;18965;52.242;20.886;2023-04-03T00:17:28;3.60;66.70
32524;DHT22;18965;52.242;20.886;2023-04-03T00:19:55;3.60;68.20
32524;DHT22;18965;52.242;20.886;2023-04-03T00:24:56;3.50;67.50
32524;DHT22;18965;52.242;20.886;2023-04-03T00:27:22;3.40;66.90
32524;DHT22;18965;52.242;20.886;2023-04-03T00:29:47;3.40;67.20
32524;DHT22;18965;52.242;20.886;2023-04-03T00:32:13;3.30;66.30
32524;DHT22;18965;52.242;20.886;2023-04-03T00:34:39;3.30;66.60
32524;DHT22;18965;52.242;20.886;2023-04-03T00:37:04;3.20;67.40
32524;DHT22;18965;52.242;20.886;2023-04-03T00:39:31;3.20;67.80
32524;DHT22;18965;52.242;20.886;2023-04-03T00:41:57;3.10;66.70
32524;DHT22;18965;52.242;20.886;2023-04-03T00:45:22;3.10;67.30
32524;DHT22;18965;52.242;20.886;2023-04-03T00:47:10;3.10;68.10
32524;DHT22;18965;52.242;20.886;2023-04-03T00:49:37;3.10;66.70
32524;DHT22;18965;52.242;20.886;2023-04-03T00:52:04;3.10;67.30
32524;DHT22;18965;52.242;20.886;2023-04-03T00:54:32;3.00;67.30
32524;DHT22;18965;52.242;20.886;2023-04-03T00:56:57;3.00;68.10
32524;DHT22;18965;52.242;20.886;2023-04-03T00:59:24;2.90;66.70
32524;DHT22;18965;52.242;20.886;2023-04-03T01:01:52;2.90;67.10
32524;DHT22;18965;52.242;20.886;2023-04-03T01:06:53;2.80;67.20
32524;DHT22;18965;52.242;20.886;2023-04-03T01:09:21;2.80;66.10
32524;DHT22;18965;52.242;20.886;2023-04-03T01:11:49;2.70;65.80
32524;DHT22;18965;52.242;20.886;2023-04-03T01:14:15;2.70;66.50
32524;DHT22;18965;52.242;20.886;2023-04-03T01:16:41;2.70;66.00
32524;DHT22;18965;52.242;20.886;2023-04-03T01:19:07;2.60;65.80
32524;DHT22;18965;52.242;20.886;2023-04-03T01:21:46;2.70;67.10
32524;DHT22;18965;52.242;20.886;2023-04-03T01:26:48;2.60;67.40
32524;DHT22;18965;52.242;20.886;2023-04-03T01:29:14;2.60;67.40
32524;DHT22;18965;52.242;20.886;2023-04-03T01:34:11;2.60;67.50
32524;DHT22;18965;52.242;20.886;2023-04-03T01:36:36;2.50;66.30
32524;DHT22;18965;52.242;20.886;2023-04-03T01:39:02;2.50;67.50
32524;DHT22;18965;52.242;20.886;2023-04-03T01:41:27;2.50;67.80
32524;DHT22;18965;52.242;20.886;2023-04-03T01:43:53;2.50;67.20
32524;DHT22;18965;52.242;20.886;2023-04-03T01:46:19;2.40;66.30
32524;DHT22;18965;52.242;20.886;2023-04-03T01:48:45;2.40;67.00
32524;DHT22;18965;52.242;20.886;2023-04-03T01:51:11;2.30;67.10
32524;DHT22;18965;52.242;20.886;2023-04-03T01:53:36;2.30;66.60
32524;DHT22;18965;52.242;20.886;2023-04-03T01:56:02;2.30;66.60
32524;DHT22;18965;52.242;20.886;2023-04-03T01:58:27;2.30;66.70
32524;DHT22;18965;52.242;20.886;2023-04-03T02:00:53;2.20;67.00
32524;DHT22;18965;52.242;20.886;2023-04-03T02:03:19;2.20;67.10
32524;DHT22;18965;52.242;20.886;2023-04-03T02:05:45;2.20;66.70
32524;DHT22;18965;52.242;20.886;2023-04-03T02:08:11;2.20;66.50
32524;DHT22;18965;52.242;20.886;2023-04-03T02:10:36;2.10;66.90
32524;DHT22;18965;52.242;20.886;2023-04-03T02:13:02;2.10;67.50
32524;DHT22;18965;52.242;20.886;2023-04-03T02:15:27;2.10;67.10
32524;DHT22;18965;52.242;20.886;2023-04-03T02:17:53;2.10;66.60
32524;DHT22;18965;52.242;20.886;2023-04-03T02:20:19;2.00;66.90
32524;DHT22;18965;52.242;20.886;2023-04-03T02:22:45;2.00;68.00
32524;DHT22;18965;52.242;20.886;2023-04-03T02:25:11;2.00;67.40
32524;DHT22;18965;52.242;20.886;2023-04-03T02:27:37;2.00;67.10
32524;DHT22;18965;52.242;20.886;2023-04-03T02:30:05;2.00;66.60
32524;DHT22;18965;52.242;20.886;2023-04-03T02:32:31;2.00;67.60
32524;DHT22;18965;52.242;20.886;2023-04-03T02:34:57;2.00;66.70
32524;DHT22;18965;52.242;20.886;2023-04-03T02:37:23;2.00;67.00
32524;DHT22;18965;52.242;20.886;2023-04-03T02:39:50;2.00;67.10
32524;DHT22;18965;52.242;20.886;2023-04-03T02:42:15;1.90;67.10
32524;DHT22;18965;52.242;20.886;2023-04-03T02:44:41;1.90;67.20
32524;DHT22;18965;52.242;20.886;2023-04-03T02:47:07;1.90;67.30
32524;DHT22;18965;52.242;20.886;2023-04-03T02:49:32;1.90;67.10
32524;DHT22;18965;52.242;20.886;2023-04-03T02:51:58;1.90;67.00
32524;DHT22;18965;52.242;20.886;2023-04-03T02:54:23;1.90;67.40
32524;DHT22;18965;52.242;20.886;2023-04-03T02:56:55;1.90;68.00
32524;DHT22;18965;52.242;20.886;2023-04-03T02:59:20;1.90;67.50
32524;DHT22;18965;52.242;20.886;2023-04-03T03:01:46;1.80;67.60
32524;DHT22;18965;52.242;20.886;2023-04-03T03:04:12;1.80;67.50
32524;DHT22;18965;52.242;20.886;2023-04-03T03:06:41;1.80;67.70
32524;DHT22;18965;52.242;20.886;2023-04-03T03:09:08;1.80;67.90
32524;DHT22;18965;52.242;20.886;2023-04-03T03:11:33;1.80;67.80
32524;DHT22;18965;52.242;20.886;2023-04-03T03:14:03;1.70;67.40
32524;DHT22;18965;52.242;20.886;2023-04-03T03:16:29;1.70;67.80
32524;DHT22;18965;52.242;20.886;2023-04-03T03:18:55;1.60;67.80
32524;DHT22;18965;52.242;20.886;2023-04-03T03:21:21;1.60;67.80
32524;DHT22;18965;52.242;20.886;2023-04-03T03:23:46;1.60;67.80
32524;DHT22;18965;52.242;20.886;2023-04-03T03:26:12;1.60;68.30
32524;DHT22;18965;52.242;20.886;2023-04-03T03:28:38;1.60;68.00
32524;DHT22;18965;52.242;20.886;2023-04-03T03:31:04;1.50;68.20
32524;DHT22;18965;52.242;20.886;2023-04-03T03:33:30;1.50;68.30
32524;DHT22;18965;52.242;20.886;2023-04-03T03:36:01;1.50;68.30
32524;DHT22;18965;52.242;20.886;2023-04-03T03:38:27;1.50;68.50
32524;DHT22;18965;52.242;20.886;2023-04-03T03:40:53;1.40;68.10
32524;DHT22;18965;52.242;20.886;2023-04-03T03:43:19;1.40;68.60
32524;DHT22;18965;52.242;20.886;2023-04-03T03:45:46;1.40;69.50
32524;DHT22;18965;52.242;20.886;2023-04-03T03:48:14;1.30;68.50
32524;DHT22;18965;52.242;20.886;2023-04-03T03:50:40;1.30;68.60
32524;DHT22;18965;52.242;20.886;2023-04-03T03:53:06;1.30;68.70
32524;DHT22;18965;52.242;20.886;2023-04-03T03:55:32;1.30;68.80
32524;DHT22;18965;52.242;20.886;2023-04-03T03:57:57;1.30;68.90
32524;DHT22;18965;52.242;20.886;2023-04-03T04:00:23;1.30;68.90
32524;DHT22;18965;52.242;20.886;2023-04-03T04:02:48;1.30;69.00
32524;DHT22;18965;52.242;20.886;2023-04-03T04:05:14;1.20;69.10
32524;DHT22;18965;52.242;20.886;2023-04-03T04:07:40;1.20;68.70
32524;DHT22;18965;52.242;20.886;2023-04-03T04:10:05;1.20;69.20
32524;DHT22;18965;52.242;20.886;2023-04-03T04:12:34;1.20;69.30
32524;DHT22;18965;52.242;20.886;2023-04-03T04:15:01;1.20;69.00
32524;DHT22;18965;52.242;20.886;2023-04-03T04:17:26;1.20;69.20
32524;DHT22;18965;52.242;20.886;2023-04-03T04:19:52;1.20;69.10
32524;DHT22;18965;52.242;20.886;2023-04-03T04:22:17;1.20;69.20
32524;DHT22;18965;52.242;20.886;2023-04-03T04:24:43;1.20;69.40
32524;DHT22;18965;52.242;20.886;2023-04-03T04:27:09;1.20;69.40
32524;DHT22;18965;52.242;20.886;2023-04-03T04:29:34;1.20;69.50
32524;DHT22;18965;52.242;20.886;2023-04-03T04:32:02;1.20;69.40
32524;DHT22;18965;52.242;20.886;2023-04-03T04:34:28;1.20;69.20
32524;DHT22;18965;52.242;20.886;2023-04-03T04:36:54;1.20;69.20
32524;DHT22;18965;52.242;20.886;2023-04-03T04:39:20;1.20;69.20
32524;DHT22;18965;52.242;20.886;2023-04-03T04:41:45;1.10;69.20
32524;DHT22;18965;52.242;20.886;2023-04-03T04:44:11;1.20;69.50
32524;DHT22;18965;52.242;20.886;2023-04-03T04:46:37;1.20;69.50
32524;DHT22;18965;52.242;20.886;2023-04-03T04:49:02;1.20;69.20
32524;DHT22;18965;52.242;20.886;2023-04-03T04:51:28;1.30;69.60
32524;DHT22;18965;52.242;20.886;2023-04-03T04:53:54;1.30;69.50
32524;DHT22;18965;52.242;20.886;2023-04-03T04:56:19;1.30;68.80
32524;DHT22;18965;52.242;20.886;2023-04-03T04:58:46;1.30;69.10
32524;DHT22;18965;52.242;20.886;2023-04-03T05:01:11;1.40;69.30
32524;DHT22;18965;52.242;20.886;2023-04-03T05:03:37;1.50;69.30
32524;DHT22;18965;52.242;20.886;2023-04-03T05:06:03;2.00;70.40
32524;DHT22;18965;52.242;20.886;2023-04-03T05:08:28;3.00;69.60
32524;DHT22;18965;52.242;20.886;2023-04-03T05:10:54;4.10;63.90
32524;DHT22;18965;52.242;20.886;2023-04-03T05:13:20;5.50;64.80
32524;DHT22;18965;52.242;20.886;2023-04-03T05:15:46;6.80;62.80
32524;DHT22;18965;52.242;20.886;2023-04-03T05:18:11;7.80;55.20
32524;DHT22;18965;52.242;20.886;2023-04-03T05:20:37;8.50;57.10
32524;DHT22;18965;52.242;20.886;2023-04-03T05:23:03;9.30;56.90
32524;DHT22;18965;52.242;20.886;2023-04-03T05:25:28;9.40;50.90
32524;DHT22;18965;52.242;20.886;2023-04-03T05:27:54;8.90;50.90
32524;DHT22;18965;52.242;20.886;2023-04-03T05:30:26;8.30;52.40
32524;DHT22;18965;52.242;20.886;2023-04-03T05:32:51;8.10;52.40
32524;DHT22;18965;52.242;20.886;2023-04-03T05:35:17;7.40;51.60
32524;DHT22;18965;52.242;20.886;2023-04-03T05:37:42;7.00;51.40
32524;DHT22;18965;52.242;20.886;2023-04-03T05:40:08;6.50;52.30
32524;DHT22;18965;52.242;20.886;2023-04-03T05:42:34;6.20;53.40
32524;DHT22;18965;52.242;20.886;2023-04-03T05:45:02;6.40;53.20
32524;DHT22;18965;52.242;20.886;2023-04-03T05:47:28;6.70;53.70
32524;DHT22;18965;52.242;20.886;2023-04-03T05:49:54;7.00;55.30
32524;DHT22;18965;52.242;20.886;2023-04-03T05:52:23;7.10;53.60
32524;DHT22;18965;52.242;20.886;2023-04-03T05:54:54;7.00;53.60
32524;DHT22;18965;52.242;20.886;2023-04-03T05:57:20;6.50;51.90
32524;DHT22;18965;52.242;20.886;2023-04-03T05:59:47;5.90;52.90
32524;DHT22;18965;52.242;20.886;2023-04-03T06:02:14;5.40;53.70
32524;DHT22;18965;52.242;20.886;2023-04-03T06:04:40;4.90;54.10
32524;DHT22;18965;52.242;20.886;2023-04-03T06:07:06;4.60;54.90
32524;DHT22;18965;52.242;20.886;2023-04-03T06:09:33;4.30;56.20
32524;DHT22;18965;52.242;20.886;2023-04-03T06:11:59;4.10;56.80
32524;DHT22;18965;52.242;20.886;2023-04-03T06:14:25;3.90;56.70
32524;DHT22;18965;52.242;20.886;2023-04-03T06:16:51;3.70;57.00
32524;DHT22;18965;52.242;20.886;2023-04-03T06:19:17;3.40;57.30
32524;DHT22;18965;52.242;20.886;2023-04-03T06:21:42;3.30;58.20
32524;DHT22;18965;52.242;20.886;2023-04-03T06:24:09;3.20;58.60
32524;DHT22;18965;52.242;20.886;2023-04-03T06:26:35;3.20;59.00
32524;DHT22;18965;52.242;20.886;2023-04-03T06:29:00;3.30;59.40
32524;DHT22;18965;52.242;20.886;2023-04-03T06:31:27;3.30;59.10
32524;DHT22;18965;52.242;20.886;2023-04-03T06:33:52;3.20;59.20
32524;DHT22;18965;52.242;20.886;2023-04-03T06:36:19;3.20;59.50
32524;DHT22;18965;52.242;20.886;2023-04-03T06:38:48;3.10;59.50
32524;DHT22;18965;52.242;20.886;2023-04-03T06:41:13;3.10;59.70
32524;DHT22;18965;52.242;20.886;2023-04-03T06:43:40;3.10;59.70
32524;DHT22;18965;52.242;20.886;2023-04-03T06:46:05;3.10;59.90
32524;DHT22;18965;52.242;20.886;2023-04-03T06:48:31;3.10;59.90
32524;DHT22;18965;52.242;20.886;2023-04-03T06:50:57;3.00;60.00
32524;DHT22;18965;52.242;20.886;2023-04-03T06:53:23;3.00;59.90
32524;DHT22;18965;52.242;20.886;2023-04-03T06:55:48;3.00;60.00
32524;DHT22;18965;52.242;20.886;2023-04-03T06:58:14;3.00;60.30
32524;DHT22;18965;52.242;20.886;2023-04-03T07:00:40;3.00;60.10
32524;DHT22;18965;52.242;20.886;2023-04-03T07:03:06;3.00;60.50
32524;DHT22;18965;52.242;20.886;2023-04-03T07:05:32;3.10;60.60
32524;DHT22;18965;52.242;20.886;2023-04-03T07:07:57;3.10;60.40
32524;DHT22;18965;52.242;20.886;2023-04-03T07:10:23;3.20;61.10
32524;DHT22;18965;52.242;20.886;2023-04-03T07:12:48;3.30;61.20
32524;DHT22;18965;52.242;20.886;2023-04-03T07:15:14;3.40;60.10
32524;DHT22;18965;52.242;20.886;2023-04-03T07:17:40;3.40;59.90
32524;DHT22;18965;52.242;20.886;2023-04-03T07:20:06;3.50;59.80
32524;DHT22;18965;52.242;20.886;2023-04-03T07:22:32;3.50;60.50
32524;DHT22;18965;52.242;20.886;2023-04-03T07:24:58;3.60;60.20
32524;DHT22;18965;52.242;20.886;2023-04-03T07:27:24;3.70;60.50
32524;DHT22;18965;52.242;20.886;2023-04-03T07:29:50;3.70;59.30
32524;DHT22;18965;52.242;20.886;2023-04-03T07:32:16;3.80;59.20
32524;DHT22;18965;52.242;20.886;2023-04-03T07:34:45;3.80;58.90
32524;DHT22;18965;52.242;20.886;2023-04-03T07:37:11;3.80;59.30
32524;DHT22;18965;52.242;20.886;2023-04-03T07:39:38;3.90;59.80
32524;DHT22;18965;52.242;20.886;2023-04-03T07:49:09;4.30;67.70
32524;DHT22;18965;52.242;20.886;2023-04-03T07:51:36;4.30;57.80
32524;DHT22;18965;52.242;20.886;2023-04-03T07:54:02;4.30;59.00
32524;DHT22;18965;52.242;20.886;2023-04-03T07:56:28;4.30;58.00
32524;DHT22;18965;52.242;20.886;2023-04-03T07:58:53;4.40;58.40
32524;DHT22;18965;52.242;20.886;2023-04-03T08:01:19;4.50;57.80
32524;DHT22;18965;52.242;20.886;2023-04-03T08:03:46;4.50;57.80
32524;DHT22;18965;52.242;20.886;2023-04-03T08:06:11;4.40;56.50
32524;DHT22;18965;52.242;20.886;2023-04-03T08:08:39;4.40;57.40
32524;DHT22;18965;52.242;20.886;2023-04-03T08:11:05;4.50;57.60
32524;DHT22;18965;52.242;20.886;2023-04-03T08:13:32;4.60;57.50
32524;DHT22;18965;52.242;20.886;2023-04-03T08:16:11;4.70;57.10
32524;DHT22;18965;52.242;20.886;2023-04-03T08:18:37;4.80;55.80
32524;DHT22;18965;52.242;20.886;2023-04-03T08:21:09;4.80;56.20
32524;DHT22;18965;52.242;20.886;2023-04-03T08:23:35;4.90;56.60
32524;DHT22;18965;52.242;20.886;2023-04-03T08:26:12;4.90;56.30
32524;DHT22;18965;52.242;20.886;2023-04-03T08:28:38;5.00;56.60
32524;DHT22;18965;52.242;20.886;2023-04-03T08:31:10;5.10;55.50
32524;DHT22;18965;52.242;20.886;2023-04-03T08:33:36;5.10;54.50
32524;DHT22;18965;52.242;20.886;2023-04-03T08:36:06;5.10;53.90
32524;DHT22;18965;52.242;20.886;2023-04-03T08:38:35;5.00;54.10
32524;DHT22;18965;52.242;20.886;2023-04-03T08:41:25;5.10;54.40
32524;DHT22;18965;52.242;20.886;2023-04-03T08:50:19;4.90;49.70
32524;DHT22;18965;52.242;20.886;2023-04-03T08:53:21;5.00;50.70
32524;DHT22;18965;52.242;20.886;2023-04-03T08:55:53;4.90;50.10
32524;DHT22;18965;52.242;20.886;2023-04-03T08:58:25;5.00;50.70
32524;DHT22;18965;52.242;20.886;2023-04-03T09:04:01;5.00;50.30
32524;DHT22;18965;52.242;20.886;2023-04-03T09:07:00;5.10;51.10
32524;DHT22;18965;52.242;20.886;2023-04-03T09:09:42;5.10;49.10
32524;DHT22;18965;52.242;20.886;2023-04-03T09:12:53;5.20;49.90
32524;DHT22;18965;52.242;20.886;2023-04-03T09:15:30;5.30;49.40
32524;DHT22;18965;52.242;20.886;2023-04-03T09:21:47;5.30;50.50
32524;DHT22;18965;52.242;20.886;2023-04-03T09:24:16;5.40;49.30
32524;DHT22;18965;52.242;20.886;2023-04-03T09:27:00;5.50;49.10
32524;DHT22;18965;52.242;20.886;2023-04-03T09:29:38;5.60;50.30
32524;DHT22;18965;52.242;20.886;2023-04-03T09:32:28;5.70;50.50
32524;DHT22;18965;52.242;20.886;2023-04-03T09:35:02;5.80;49.20
32524;DHT22;18965;52.242;20.886;2023-04-03T09:37:51;5.70;48.60
32524;DHT22;18965;52.242;20.886;2023-04-03T09:41:06;5.80;49.60
32524;DHT22;18965;52.242;20.886;2023-04-03T09:43:57;5.80;47.70
32524;DHT22;18965;52.242;20.886;2023-04-03T09:53:25;5.70;48.70
32524;DHT22;18965;52.242;20.886;2023-04-03T09:55:54;5.90;48.30
32524;DHT22;18965;52.242;20.886;2023-04-03T10:04:46;5.90;46.80
32524;DHT22;18965;52.242;20.886;2023-04-03T10:07:37;6.10;47.30
32524;DHT22;18965;52.242;20.886;2023-04-03T10:10:22;6.20;47.60
32524;DHT22;18965;52.242;20.886;2023-04-03T10:13:17;6.20;48.10
32524;DHT22;18965;52.242;20.886;2023-04-03T10:19:06;6.30;45.50
32524;DHT22;18965;52.242;20.886;2023-04-03T10:27:55;6.50;46.80
32524;DHT22;18965;52.242;20.886;2023-04-03T10:34:07;6.50;44.90
32524;DHT22;18965;52.242;20.886;2023-04-03T10:44:06;6.80;45.90
32524;DHT22;18965;52.242;20.886;2023-04-03T10:47:11;6.80;44.70
32524;DHT22;18965;52.242;20.886;2023-04-03T10:53:36;6.90;45.60
32524;DHT22;18965;52.242;20.886;2023-04-03T10:58:57;7.10;46.50
32524;DHT22;18965;52.242;20.886;2023-04-03T11:01:37;7.10;43.40
32524;DHT22;18965;52.242;20.886;2023-04-03T11:04:24;7.00;45.00
32524;DHT22;18965;52.242;20.886;2023-04-03T11:10:03;6.80;43.40
32524;DHT22;18965;52.242;20.886;2023-04-03T11:12:56;6.90;44.30
32524;DHT22;18965;52.242;20.886;2023-04-03T11:15:53;7.00;43.20
32524;DHT22;18965;52.242;20.886;2023-04-03T11:18:51;7.20;44.30
32524;DHT22;18965;52.242;20.886;2023-04-03T11:21:46;7.20;43.50
32524;DHT22;18965;52.242;20.886;2023-04-03T11:24:27;7.20;43.90
32524;DHT22;18965;52.242;20.886;2023-04-03T11:26:56;7.30;43.90
32524;DHT22;18965;52.242;20.886;2023-04-03T11:29:28;7.30;45.00
32524;DHT22;18965;52.242;20.886;2023-04-03T11:35:07;7.30;43.30
32524;DHT22;18965;52.242;20.886;2023-04-03T11:37:46;7.20;43.40
32524;DHT22;18965;52.242;20.886;2023-04-03T11:40:36;7.20;42.80
32524;DHT22;18965;52.242;20.886;2023-04-03T11:43:22;7.20;41.80
32524;DHT22;18965;52.242;20.886;2023-04-03T11:46:09;7.20;44.30
32524;DHT22;18965;52.242;20.886;2023-04-03T11:53:42;7.40;43.90
32524;DHT22;18965;52.242;20.886;2023-04-03T11:56:27;7.50;44.70
32524;DHT22;18965;52.242;20.886;2023-04-03T11:59:23;7.60;43.10
32524;DHT22;18965;52.242;20.886;2023-04-03T12:01:56;7.60;42.80
32524;DHT22;18965;52.242;20.886;2023-04-03T12:04:27;7.50;41.30
32524;DHT22;18965;52.242;20.886;2023-04-03T12:07:16;7.50;42.90
32524;DHT22;18965;52.242;20.886;2023-04-03T12:15:22;7.80;43.70
32524;DHT22;18965;52.242;20.886;2023-04-03T12:17:48;7.80;43.20
32524;DHT22;18965;52.242;20.886;2023-04-03T12:23:28;7.80;44.70
32524;DHT22;18965;52.242;20.886;2023-04-03T12:28:36;8.10;42.50
32524;DHT22;18965;52.242;20.886;2023-04-03T12:31:04;8.00;41.90
32524;DHT22;18965;52.242;20.886;2023-04-03T12:47:43;8.10;43.60
32524;DHT22;18965;52.242;20.886;2023-04-03T12:50:22;8.00;42.20
32524;DHT22;18965;52.242;20.886;2023-04-03T12:56:38;7.90;42.10
32524;DHT22;18965;52.242;20.886;2023-04-03T12:59:25;8.10;41.20
32524;DHT22;18965;52.242;20.886;2023-04-03T13:02:00;8.10;41.30
32524;DHT22;18965;52.242;20.886;2023-04-03T13:04:47;8.20;42.30
32524;DHT22;18965;52.242;20.886;2023-04-03T13:07:49;8.20;40.40
32524;DHT22;18965;52.242;20.886;2023-04-03T13:10:47;8.20;40.60
32524;DHT22;18965;52.242;20.886;2023-04-03T13:13:57;8.20;40.20
32524;DHT22;18965;52.242;20.886;2023-04-03T13:16:24;8.30;42.50
32524;DHT22;18965;52.242;20.886;2023-04-03T13:18:56;8.40;42.60
32524;DHT22;18965;52.242;20.886;2023-04-03T13:21:33;8.30;40.40
32524;DHT22;18965;52.242;20.886;2023-04-03T13:24:15;8.10;39.00
32524;DHT22;18965;52.242;20.886;2023-04-03T13:29:33;7.90;41.50
32524;DHT22;18965;52.242;20.886;2023-04-03T13:41:32;7.80;40.40
32524;DHT22;18965;52.242;20.886;2023-04-03T13:46:58;7.70;40.10
32524;DHT22;18965;52.242;20.886;2023-04-03T13:49:37;7.70;41.00
32524;DHT22;18965;52.242;20.886;2023-04-03T13:52:40;7.70;40.40
32524;DHT22;18965;52.242;20.886;2023-04-03T13:55:27;7.70;40.30
32524;DHT22;18965;52.242;20.886;2023-04-03T13:58:00;7.80;40.90
32524;DHT22;18965;52.242;20.886;2023-04-03T14:00:59;7.80;40.90
32524;DHT22;18965;52.242;20.886;2023-04-03T14:03:32;7.80;41.30
32524;DHT22;18965;52.242;20.886;2023-04-03T14:06:16;7.80;41.60
32524;DHT22;18965;52.242;20.886;2023-04-03T14:08:46;7.90;41.60
32524;DHT22;18965;52.242;20.886;2023-04-03T14:11:41;7.80;41.70
32524;DHT22;18965;52.242;20.886;2023-04-03T14:14:15;7.90;41.60
32524;DHT22;18965;52.242;20.886;2023-04-03T14:19:46;7.80;41.20
32524;DHT22;18965;52.242;20.886;2023-04-03T14:22:42;7.80;41.10
32524;DHT22;18965;52.242;20.886;2023-04-03T14:25:27;7.70;40.60
32524;DHT22;18965;52.242;20.886;2023-04-03T14:30:54;7.70;41.00
32524;DHT22;18965;52.242;20.886;2023-04-03T14:36:37;7.60;40.50
32524;DHT22;18965;52.242;20.886;2023-04-03T14:41:31;7.60;42.40
32524;DHT22;18965;52.242;20.886;2023-04-03T14:44:00;7.60;42.50
32524;DHT22;18965;52.242;20.886;2023-04-03T14:46:41;7.60;42.90
32524;DHT22;18965;52.242;20.886;2023-04-03T14:49:20;7.60;43.20
32524;DHT22;18965;52.242;20.886;2023-04-03T14:55:12;7.70;43.30
32524;DHT22;18965;52.242;20.886;2023-04-03T14:58:02;7.60;42.80
32524;DHT22;18965;52.242;20.886;2023-04-03T15:00:30;7.60;43.00
32524;DHT22;18965;52.242;20.886;2023-04-03T15:06:34;7.60;43.20
32524;DHT22;18965;52.242;20.886;2023-04-03T15:09:39;7.60;42.00
32524;DHT22;18965;52.242;20.886;2023-04-03T15:12:13;7.40;42.30
32524;DHT22;18965;52.242;20.886;2023-04-03T15:15:12;7.40;42.30
32524;DHT22;18965;52.242;20.886;2023-04-03T15:24:46;7.20;43.20
32524;DHT22;18965;52.242;20.886;2023-04-03T15:31:00;7.10;43.10
32524;DHT22;18965;52.242;20.886;2023-04-03T15:33:32;7.10;43.30
32524;DHT22;18965;52.242;20.886;2023-04-03T15:39:07;7.10;44.00
32524;DHT22;18965;52.242;20.886;2023-04-03T15:47:36;7.10;44.90
32524;DHT22;18965;52.242;20.886;2023-04-03T15:50:22;7.20;44.50
32524;DHT22;18965;52.242;20.886;2023-04-03T15:52:52;7.00;44.30
32524;DHT22;18965;52.242;20.886;2023-04-03T15:55:33;7.00;44.50
32524;DHT22;18965;52.242;20.886;2023-04-03T16:12:37;6.80;45.40
32524;DHT22;18965;52.242;20.886;2023-04-03T16:15:23;6.80;45.10
32524;DHT22;18965;52.242;20.886;2023-04-03T16:17:58;6.80;45.30
32524;DHT22;18965;52.242;20.886;2023-04-03T16:20:28;6.70;44.80
32524;DHT22;18965;52.242;20.886;2023-04-03T16:23:20;6.70;45.30
32524;DHT22;18965;52.242;20.886;2023-04-03T16:25:46;6.70;45.00
32524;DHT22;18965;52.242;20.886;2023-04-03T16:28:27;6.70;45.20
32524;DHT22;18965;52.242;20.886;2023-04-03T16:31:03;6.60;45.00
32524;DHT22;18965;52.242;20.886;2023-04-03T16:34:17;6.70;44.90
32524;DHT22;18965;52.242;20.886;2023-04-03T16:36:46;6.50;44.10
32524;DHT22;18965;52.242;20.886;2023-04-03T16:39:18;6.40;44.70
32524;DHT22;18965;52.242;20.886;2023-04-03T16:42:04;6.40;44.10
32524;DHT22;18965;52.242;20.886;2023-04-03T16:44:33;6.30;44.50
32524;DHT22;18965;52.242;20.886;2023-04-03T16:47:10;6.30;44.70
32524;DHT22;18965;52.242;20.886;2023-04-03T16:49:55;6.30;44.90
32524;DHT22;18965;52.242;20.886;2023-04-03T16:52:30;6.20;45.10
32524;DHT22;18965;52.242;20.886;2023-04-03T16:55:16;6.20;45.00
32524;DHT22;18965;52.242;20.886;2023-04-03T16:57:50;6.10;45.30
32524;DHT22;18965;52.242;20.886;2023-04-03T17:00:16;6.20;46.00
32524;DHT22;18965;52.242;20.886;2023-04-03T17:02:42;6.10;46.00
32524;DHT22;18965;52.242;20.886;2023-04-03T17:05:11;6.00;46.30
32524;DHT22;18965;52.242;20.886;2023-04-03T17:13:49;5.90;46.70
32524;DHT22;18965;52.242;20.886;2023-04-03T17:16:18;6.00;46.90
32524;DHT22;18965;52.242;20.886;2023-04-03T17:19:01;5.80;47.10
32524;DHT22;18965;52.242;20.886;2023-04-03T17:28:18;6.00;47.50
32524;DHT22;18965;52.242;20.886;2023-04-03T17:56:18;6.00;48.40
32524;DHT22;18965;52.242;20.886;2023-04-03T18:02:23;5.90;48.40
32524;DHT22;18965;52.242;20.886;2023-04-03T18:05:36;5.90;48.70
32524;DHT22;18965;52.242;20.886;2023-04-03T18:08:28;5.90;49.40
32524;DHT22;18965;52.242;20.886;2023-04-03T18:13:30;5.90;48.80
32524;DHT22;18965;52.242;20.886;2023-04-03T18:16:26;5.90;48.90
32524;DHT22;18965;52.242;20.886;2023-04-03T18:25:25;5.80;49.00
32524;DHT22;18965;52.242;20.886;2023-04-03T18:27:51;5.70;49.00
32524;DHT22;18965;52.242;20.886;2023-04-03T18:38:20;5.60;49.60
32524;DHT22;18965;52.242;20.886;2023-04-03T18:40:58;5.60;49.90
32524;DHT22;18965;52.242;20.886;2023-04-03T18:43:58;5.60;50.00
32524;DHT22;18965;52.242;20.886;2023-04-03T18:49:51;5.40;50.50
32524;DHT22;18965;52.242;20.886;2023-04-03T18:52:22;5.40;50.60
32524;DHT22;18965;52.242;20.886;2023-04-03T18:58:59;5.40;51.20
32524;DHT22;18965;52.242;20.886;2023-04-03T19:06:57;5.20;52.30
32524;DHT22;18965;52.242;20.886;2023-04-03T19:09:41;5.20;52.10
32524;DHT22;18965;52.242;20.886;2023-04-03T19:23:55;5.20;52.40
32524;DHT22;18965;52.242;20.886;2023-04-03T19:26:24;5.20;52.50
32524;DHT22;18965;52.242;20.886;2023-04-03T19:28:51;5.20;52.60
32524;DHT22;18965;52.242;20.886;2023-04-03T19:31:19;5.20;52.60
32524;DHT22;18965;52.242;20.886;2023-04-03T19:33:48;5.20;52.80
32524;DHT22;18965;52.242;20.886;2023-04-03T19:36:15;5.20;52.80
32524;DHT22;18965;52.242;20.886;2023-04-03T19:38:41;5.20;52.90
32524;DHT22;18965;52.242;20.886;2023-04-03T19:41:49;5.20;53.10
32524;DHT22;18965;52.242;20.886;2023-04-03T19:44:15;5.20;53.10
32524;DHT22;18965;52.242;20.886;2023-04-03T19:46:41;5.10;53.20
32524;DHT22;18965;52.242;20.886;2023-04-03T19:49:06;5.10;53.20
32524;DHT22;18965;52.242;20.886;2023-04-03T19:51:32;5.10;53.20
32524;DHT22;18965;52.242;20.886;2023-04-03T19:53:58;5.10;53.40
32524;DHT22;18965;52.242;20.886;2023-04-03T19:56:24;5.00;53.40
32524;DHT22;18965;52.242;20.886;2023-04-03T19:58:50;5.00;53.50
32524;DHT22;18965;52.242;20.886;2023-04-03T20:01:22;5.00;53.60
32524;DHT22;18965;52.242;20.886;2023-04-03T20:03:49;5.00;53.60
32524;DHT22;18965;52.242;20.886;2023-04-03T20:06:15;5.00;53.80
32524;DHT22;18965;52.242;20.886;2023-04-03T20:08:41;5.00;53.80
32524;DHT22;18965;52.242;20.886;2023-04-03T20:11:08;5.00;53.70
32524;DHT22;18965;52.242;20.886;2023-04-03T20:13:33;5.00;53.70
32524;DHT22;18965;52.242;20.886;2023-04-03T20:16:04;5.00;53.80
32524;DHT22;18965;52.242;20.886;2023-04-03T20:18:30;4.90;53.80
32524;DHT22;18965;52.242;20.886;2023-04-03T20:20:59;4.90;53.90